Sunday, May 27, 2018, 9:54 AM EDT
Back to Local

KDAW, Skyhaven Airport

Location: Rochester, NH, United States Lat: 43.283
Local Time: 9:54 AM EDT (13:54 GMT) Lon: -70.917
Time Zone: US/Eastern Elev: 321 ft

Show me the last for .
Show Decoded

2018-05-27 08:51 METAR KDAW 271251Z AUTO 08007KT 050V110 10SM FEW018 OVC060 12/09 A3024 RMK AO2
                 SLP237 T01220089 =
2018-05-27 08:04 METAR KDAW 271204Z AUTO 07008KT 10SM SCT016 OVC060 12/09 A3022 RMK AO2 T01220094
                 =
2018-05-27 07:51 METAR KDAW 271151Z AUTO 08007KT 10SM BKN014 OVC060 12/10 A3022 RMK AO2 SLP231
                 60000 70013 T01170100 10156 20111 51030 =
2018-05-27 06:51 METAR KDAW 271051Z AUTO 08004KT 10SM OVC010 11/11 A3020 RMK AO2 CIG 008V014
                 SLP222 T01110106 =
2018-05-27 05:51 METAR KDAW 270951Z AUTO 05005KT 10SM BKN011 OVC016 11/11 A3017 RMK AO2 SLP213
                 T01110106 =
2018-05-27 05:40 METAR KDAW 270940Z AUTO VRB03KT 10SM BKN013 OVC022 11/11 A3016 RMK AO2 T01110106
                 =
2018-05-27 04:51 METAR KDAW 270851Z AUTO 06006KT 10SM OVC015 12/11 A3013 RMK AO2 SLP199 60000
                 T01170111 51017 =
2018-05-27 04:36 METAR KDAW 270836Z AUTO VRB06KT 10SM SCT010 BKN015 OVC060 12/11 A3014 RMK AO2
                 T01170111 =
2018-05-27 04:08 METAR KDAW 270808Z AUTO 06010G17KT 10SM FEW009 BKN014 OVC065 12/12 A3011 RMK AO2
                 T01220117 =
2018-05-27 03:51 METAR KDAW 270751Z AUTO 07008KT 10SM SCT011 SCT018 OVC070 13/12 A3011 RMK AO2
                 RAE0652 SLP193 P0000 T01330122 =
2018-05-27 02:51 METAR KDAW 270651Z AUTO 00000KT 10SM -RA SCT045 OVC055 14/14 A3011 RMK AO2
                 RAE09B42 SLP192 P0000 T01440139 =
2018-05-27 01:51 METAR KDAW 270551Z AUTO VRB06KT 10SM -RA BKN049 OVC070 16/14 A3008 RMK AO2
                 SLP181 P0004 60011 T01560144 10206 20156 53036 =
2018-05-27 01:20 METAR KDAW 270520Z AUTO 11008KT 8SM -RA SCT004 BKN030 OVC045 16/16 A3006 RMK AO2
                 P0002 T01610156 =
2018-05-27 00:51 METAR KDAW 270451Z AUTO 07010G20KT 9SM -RA BKN005 OVC009 18/17 A3003 RMK AO2 CIG
                 003V007 SLP164 P0002 T01780172 402780172 =
2018-05-27 00:34 METAR KDAW 270434Z AUTO 08005KT 10SM -RA BKN007 BKN012 OVC016 18/18 A3002 RMK
                 AO2 P0001 T01780178 =
2018-05-27 00:26 METAR KDAW 270426Z AUTO 09005KT 10SM -RA BKN010 BKN016 OVC046 18/18 A3002 RMK
                 AO2 CIG 007V013 P0001 T01830178 =
2018-05-27 00:18 METAR KDAW 270418Z AUTO VRB06KT 9SM -RA SCT010 BKN016 OVC065 18/18 A3001 RMK AO2
                 P0001 T01830178 =
2018-05-26 23:51 METAR KDAW 270351Z AUTO 00000KT 6SM -RA BR FEW050 OVC065 18/18 A3000 RMK AO2
                 RAB39 SLP153 P0000 T01780178 =
2018-05-26 23:15 METAR KDAW 270315Z AUTO 00000KT 10SM SCT019 BKN043 OVC065 18/18 A2999 RMK AO2
                 T01780178 =
2018-05-26 23:07 METAR KDAW 270307Z AUTO 00000KT 10SM FEW016 BKN021 OVC060 18/18 A2998 RMK AO2
                 T01780178 =
2018-05-26 22:51 METAR KDAW 270251Z AUTO 36003KT 10SM FEW018 BKN041 OVC060 18/18 A2997 RMK AO2
                 RAE14 SLP145 P0002 60005 T01780178 51030 =
2018-05-26 21:51 METAR KDAW 270151Z AUTO 10003KT 6SM RA BR OVC060 18/18 A2995 RMK AO2 RAB18
                 SLP137 P0003 T01780178 =
2018-05-26 20:51 METAR KDAW 270051Z AUTO 02006KT 10SM BKN049 OVC065 19/18 A2992 RMK AO2 SLP126
                 T01890178 =
2018-05-26 19:51 METAR KDAW 262351Z AUTO 01005KT 10SM BKN070 OVC100 21/17 A2988 RMK AO2 SLP115
                 60002 T02060172 10278 20206 51031 =
2018-05-26 18:51 METAR KDAW 262251Z AUTO 04004KT 10SM FEW035 BKN044 BKN110 21/19 A2986 RMK AO2
                 RAE39 SLP106 P0002 T02110189 =
2018-05-26 17:51 METAR KDAW 262151Z AUTO 04004KT 10SM -RA BKN100 OVC110 22/18 A2982 RMK AO2 RAB42
                 SLP095 P0000 T02220183 =
2018-05-26 16:51 METAR KDAW 262051Z AUTO 04006KT 10SM CLR 26/18 A2979 RMK AO2 SLP083 T02560183
                 53015 =
2018-05-26 14:51 METAR KDAW 261851Z AUTO VRB03KT 10SM CLR 27/16 A2976 RMK AO2 SLP073 T02720156 =
2018-05-26 13:51 METAR KDAW 261751Z AUTO VRB04KT 10SM CLR 27/16 A2974 RMK AO2 SLP067 T02720156
                 10278 20222 50004 =
2018-05-26 12:51 METAR KDAW 261651Z AUTO 32008KT 10SM CLR 27/15 A2976 RMK AO2 SLP072 T02670150 =
2018-05-26 11:51 METAR KDAW 261551Z AUTO VRB04KT 10SM CLR 26/14 A2974 RMK AO2 SLP067 T02610144 =
2018-05-26 10:51 METAR KDAW 261451Z AUTO 29004KT 10SM CLR 25/14 A2973 RMK AO2 SLP063 T02500144
                 51009 =

Support USWX by starting your Amazon purchase here.